createdAt,value
2018-07-24T00:00:37.723Z,25.10
2018-07-24T00:03:06.164Z,25.10
2018-07-24T00:05:34.533Z,25.10
2018-07-24T00:08:03.135Z,25.10
2018-07-24T00:10:31.440Z,25.00
2018-07-24T00:12:59.799Z,25.00
2018-07-24T00:15:28.150Z,25.00
2018-07-24T00:17:56.494Z,25.00
2018-07-24T00:20:24.931Z,24.90
2018-07-24T00:22:53.395Z,24.90
2018-07-24T00:25:21.728Z,24.90
2018-07-24T00:27:50.186Z,24.90
2018-07-24T00:30:18.518Z,24.80
2018-07-24T00:32:46.868Z,24.80
2018-07-24T00:37:43.199Z,24.80
2018-07-24T00:40:11.514Z,24.80
2018-07-24T00:42:39.879Z,24.80
2018-07-24T00:45:08.336Z,24.80
2018-07-24T00:47:36.746Z,24.70
2018-07-24T00:52:34.280Z,24.70
2018-07-24T00:55:02.648Z,24.70
2018-07-24T00:57:30.978Z,24.70
2018-07-24T00:59:59.368Z,24.60
2018-07-24T01:02:27.663Z,24.60
2018-07-24T01:04:56.029Z,24.60
2018-07-24T01:07:24.476Z,24.60
2018-07-24T01:09:52.792Z,24.60
2018-07-24T01:12:21.125Z,24.50
2018-07-24T01:14:49.436Z,24.50
2018-07-24T01:17:17.852Z,24.50
2018-07-24T01:19:46.201Z,24.50
2018-07-24T01:24:43.239Z,24.40
2018-07-24T01:27:11.611Z,24.40
2018-07-24T01:29:39.917Z,24.40
2018-07-24T01:32:08.311Z,24.40
2018-07-24T01:34:36.658Z,24.40
2018-07-24T01:37:05.016Z,24.30
2018-07-24T01:39:33.327Z,24.30
2018-07-24T01:42:01.679Z,24.30
2018-07-24T01:44:30.064Z,24.30
2018-07-24T01:46:58.428Z,24.30
2018-07-24T01:49:26.817Z,24.20
2018-07-24T01:51:55.132Z,24.20
2018-07-24T01:54:23.448Z,24.20
2018-07-24T01:56:51.819Z,24.10
2018-07-24T01:59:20.467Z,24.10
2018-07-24T02:01:48.854Z,24.10
2018-07-24T02:04:17.199Z,24.10
2018-07-24T02:06:45.592Z,24.10
2018-07-24T02:09:13.939Z,24.10
2018-07-24T02:11:42.264Z,24.10
2018-07-24T02:14:10.584Z,24.10
2018-07-24T02:16:38.912Z,24.00
2018-07-24T02:19:07.274Z,24.00
2018-07-24T02:21:35.649Z,24.00
2018-07-24T02:26:32.055Z,24.00
2018-07-24T02:29:00.425Z,23.90
2018-07-24T02:31:28.812Z,23.90
2018-07-24T02:33:57.161Z,23.90
2018-07-24T02:36:25.473Z,23.90
2018-07-24T02:38:53.817Z,23.90
2018-07-24T02:41:22.228Z,23.80
2018-07-24T02:43:50.564Z,23.80
2018-07-24T02:46:19.113Z,23.80
2018-07-24T02:48:47.474Z,23.80
2018-07-24T02:51:15.794Z,23.80
2018-07-24T02:53:44.135Z,23.80
2018-07-24T02:56:12.457Z,23.70
2018-07-24T02:58:40.781Z,23.70
2018-07-24T03:01:09.120Z,23.70
2018-07-24T03:06:05.824Z,23.70
2018-07-24T03:08:34.168Z,23.70
2018-07-24T03:11:06.299Z,23.70
2018-07-24T03:13:34.653Z,23.60
2018-07-24T03:16:03.100Z,23.60
2018-07-24T03:18:31.447Z,23.60
2018-07-24T03:20:59.825Z,23.60
2018-07-24T03:23:28.145Z,23.60
2018-07-24T03:25:56.444Z,23.60
2018-07-24T03:28:24.772Z,23.60
2018-07-24T03:30:53.078Z,23.60
2018-07-24T03:33:21.424Z,23.50
2018-07-24T03:35:49.828Z,23.50
2018-07-24T03:38:18.241Z,23.50
2018-07-24T03:40:46.598Z,23.50
2018-07-24T03:43:16.309Z,23.50
2018-07-24T03:50:42.087Z,23.40
2018-07-24T03:53:10.434Z,23.40
2018-07-24T03:55:38.792Z,23.30
2018-07-24T03:58:07.466Z,23.20
2018-07-24T04:00:35.828Z,23.20
2018-07-24T04:03:04.277Z,23.20
2018-07-24T04:08:00.676Z,23.20
2018-07-24T04:10:29.123Z,23.20
2018-07-24T04:12:57.471Z,23.10
2018-07-24T04:15:25.827Z,23.10
2018-07-24T04:17:54.164Z,23.10
2018-07-24T04:25:18.612Z,23.10
2018-07-24T04:27:46.955Z,23.00
2018-07-24T04:30:15.369Z,23.00
2018-07-24T04:32:43.744Z,23.00
2018-07-24T04:35:12.479Z,23.00
2018-07-24T04:37:40.844Z,23.00
2018-07-24T04:40:09.364Z,23.00
2018-07-24T04:42:37.733Z,23.00
2018-07-24T04:45:06.800Z,22.90
2018-07-24T04:47:35.236Z,22.90
2018-07-24T04:50:03.680Z,22.90
2018-07-24T04:52:32.052Z,22.90
2018-07-24T04:55:00.577Z,22.90
2018-07-24T04:57:28.911Z,22.80
2018-07-24T04:59:57.249Z,22.80
2018-07-24T05:04:53.709Z,22.80
2018-07-24T05:07:22.043Z,22.80
2018-07-24T05:09:50.338Z,22.80
2018-07-24T05:12:18.705Z,22.80
2018-07-24T05:14:47.015Z,22.80
2018-07-24T05:17:15.356Z,22.80
2018-07-24T05:19:43.737Z,22.80
2018-07-24T05:22:12.098Z,22.80
2018-07-24T05:24:40.447Z,22.80
2018-07-24T05:27:08.801Z,22.80
2018-07-24T05:29:37.160Z,22.80
2018-07-24T05:32:05.757Z,22.80
2018-07-24T05:34:34.124Z,22.90
2018-07-24T05:37:02.452Z,22.80
2018-07-24T05:39:30.836Z,22.80
2018-07-24T05:41:59.200Z,22.80
2018-07-24T05:44:27.559Z,22.90
2018-07-24T05:46:55.966Z,22.90
2018-07-24T05:51:52.496Z,22.90
2018-07-24T05:54:20.867Z,22.90
2018-07-24T05:56:49.211Z,23.00
2018-07-24T05:59:17.566Z,23.00
2018-07-24T06:01:45.971Z,23.00
2018-07-24T06:04:14.285Z,23.00
2018-07-24T06:06:42.772Z,23.00
2018-07-24T06:09:11.101Z,23.00
2018-07-24T06:11:39.432Z,23.00
2018-07-24T06:14:45.035Z,23.00
2018-07-24T06:17:13.689Z,23.00
2018-07-24T06:19:42.071Z,23.00
2018-07-24T06:22:10.479Z,23.00
2018-07-24T06:27:06.980Z,23.10
2018-07-24T06:29:35.372Z,23.10
2018-07-24T06:32:04.044Z,23.10
2018-07-24T06:34:32.353Z,23.20
2018-07-24T06:37:00.722Z,23.20
2018-07-24T06:41:57.123Z,23.20
2018-07-24T06:44:25.504Z,23.20
2018-07-24T06:46:53.853Z,23.30
2018-07-24T06:49:22.218Z,23.30
2018-07-24T06:51:50.644Z,23.40
2018-07-24T06:54:18.964Z,23.40
2018-07-24T06:56:47.301Z,23.40
2018-07-24T06:59:15.674Z,23.40
2018-07-24T07:01:44.090Z,23.50
2018-07-24T07:04:12.452Z,23.50
2018-07-24T07:06:40.934Z,23.50
2018-07-24T07:09:09.384Z,23.50
2018-07-24T07:11:37.774Z,23.60
2018-07-24T07:14:18.766Z,23.60
2018-07-24T07:16:47.222Z,23.60
2018-07-24T07:19:15.576Z,23.70
2018-07-24T07:21:43.905Z,23.70
2018-07-24T07:24:12.298Z,23.70
2018-07-24T07:26:40.711Z,23.70
2018-07-24T07:29:09.076Z,23.70
2018-07-24T07:31:37.413Z,23.80
2018-07-24T07:34:05.874Z,23.80
2018-07-24T07:36:34.230Z,23.90
2018-07-24T07:39:02.856Z,23.90
2018-07-24T07:41:31.233Z,23.90
2018-07-24T07:43:59.669Z,24.00
2018-07-24T07:46:27.933Z,24.00
2018-07-24T07:51:24.255Z,24.10
2018-07-24T07:56:20.680Z,24.10
2018-07-24T07:58:49.078Z,24.20
2018-07-24T08:01:17.459Z,24.20
2018-07-24T08:03:45.768Z,24.30
2018-07-24T08:06:14.100Z,24.30
2018-07-24T08:08:42.679Z,24.40
2018-07-24T08:11:11.145Z,24.40
2018-07-24T08:13:39.494Z,24.40
2018-07-24T08:16:07.848Z,24.50
2018-07-24T08:18:36.220Z,24.50
2018-07-24T08:21:04.588Z,24.50
2018-07-24T08:23:32.987Z,24.60
2018-07-24T08:26:01.365Z,24.60
2018-07-24T08:28:29.750Z,24.70
2018-07-24T08:30:58.270Z,24.70
2018-07-24T08:33:26.659Z,24.70
2018-07-24T08:35:55.028Z,24.80
2018-07-24T08:38:23.385Z,24.80
2018-07-24T08:40:51.740Z,24.90
2018-07-24T08:43:20.092Z,24.90
2018-07-24T08:45:48.468Z,25.00
2018-07-24T08:48:18.485Z,25.00
2018-07-24T08:50:46.840Z,25.00
2018-07-24T08:53:17.508Z,25.10
2018-07-24T08:55:46.191Z,25.10
2018-07-24T08:58:16.313Z,25.10
2018-07-24T09:00:44.726Z,25.20
2018-07-24T09:03:13.210Z,25.20
2018-07-24T09:08:09.597Z,25.30
2018-07-24T09:10:37.998Z,25.30
2018-07-24T09:13:06.545Z,25.40
2018-07-24T09:15:34.910Z,25.40
2018-07-24T09:18:03.253Z,25.50
2018-07-24T09:20:31.591Z,25.60
2018-07-24T09:22:59.900Z,25.60
2018-07-24T09:25:28.284Z,25.60
2018-07-24T09:27:56.654Z,25.70
2018-07-24T09:30:25.121Z,25.80
2018-07-24T09:32:53.511Z,25.80
2018-07-24T09:35:21.901Z,25.80
2018-07-24T09:37:50.275Z,25.80
2018-07-24T09:40:18.688Z,25.90
2018-07-24T09:42:47.043Z,25.90
2018-07-24T09:45:15.401Z,26.00
2018-07-24T09:47:43.783Z,26.00
2018-07-24T09:50:12.471Z,26.10
2018-07-24T09:52:40.802Z,26.20
2018-07-24T09:55:09.295Z,26.20
2018-07-24T09:57:37.644Z,26.20
2018-07-24T10:00:07.493Z,26.30
2018-07-24T10:02:36.020Z,26.30
2018-07-24T10:05:04.516Z,26.40
2018-07-24T10:07:33.003Z,26.40
2018-07-24T10:10:01.366Z,26.60
2018-07-24T10:12:29.755Z,26.60
2018-07-24T10:15:36.237Z,26.60
2018-07-24T10:18:04.599Z,26.60
2018-07-24T10:20:33.036Z,26.60
2018-07-24T10:23:01.348Z,26.60
2018-07-24T10:25:29.701Z,26.70
2018-07-24T10:27:58.038Z,26.90
2018-07-24T10:30:26.389Z,26.90
2018-07-24T10:32:54.782Z,27.00
2018-07-24T10:35:23.106Z,27.00
2018-07-24T10:37:51.416Z,27.00
2018-07-24T10:40:19.773Z,27.10
2018-07-24T10:47:44.291Z,27.30
2018-07-24T10:50:13.029Z,27.40
2018-07-24T10:52:41.449Z,27.40
2018-07-24T10:55:09.860Z,27.50
2018-07-24T10:57:38.228Z,27.60
2018-07-24T11:00:06.676Z,27.60
2018-07-24T11:02:35.100Z,27.50
2018-07-24T11:05:03.621Z,27.60
2018-07-24T11:07:32.013Z,27.70
2018-07-24T11:10:00.328Z,27.80
2018-07-24T11:12:28.702Z,27.70
2018-07-24T11:15:46.089Z,27.70
2018-07-24T11:18:16.073Z,27.70
2018-07-24T11:20:44.476Z,27.80
2018-07-24T11:23:13.051Z,27.80
2018-07-24T11:25:41.271Z,27.90
2018-07-24T11:28:09.685Z,27.90
2018-07-24T11:30:38.012Z,28.00
2018-07-24T11:33:06.518Z,28.10
2018-07-24T11:35:34.871Z,28.10
2018-07-24T11:38:03.195Z,28.10
2018-07-24T11:40:31.551Z,28.10
2018-07-24T11:42:59.930Z,28.20
2018-07-24T11:45:28.303Z,28.20
2018-07-24T11:47:56.543Z,28.20
2018-07-24T11:50:24.893Z,28.20
2018-07-24T11:52:53.261Z,28.30
2018-07-24T11:55:21.636Z,28.30
2018-07-24T11:57:50.016Z,28.60
2018-07-24T12:00:18.387Z,28.60
2018-07-24T12:02:46.779Z,28.70
2018-07-24T12:05:15.425Z,28.70
2018-07-24T12:07:43.803Z,28.80
2018-07-24T12:10:12.191Z,28.90
2018-07-24T12:12:40.604Z,28.90
2018-07-24T12:18:26.219Z,29.00
2018-07-24T12:20:54.559Z,28.90
2018-07-24T12:23:22.997Z,29.00
2018-07-24T12:25:51.400Z,28.90
2018-07-24T12:28:19.744Z,29.00
2018-07-24T12:30:48.121Z,29.10
2018-07-24T12:33:18.044Z,29.10
2018-07-24T12:35:46.395Z,29.20
2018-07-24T12:38:16.388Z,29.20
2018-07-24T12:40:44.728Z,29.20
2018-07-24T12:43:13.099Z,29.30
2018-07-24T12:45:41.444Z,29.30
2018-07-24T12:48:09.818Z,29.40
2018-07-24T12:50:38.285Z,29.40
2018-07-24T12:53:06.675Z,29.40
2018-07-24T12:55:35.057Z,29.40
2018-07-24T12:58:03.414Z,29.40
2018-07-24T13:00:31.827Z,29.50
2018-07-24T13:05:28.211Z,29.60
2018-07-24T13:07:56.572Z,29.70
2018-07-24T13:10:25.279Z,29.70
2018-07-24T13:12:53.681Z,29.70
2018-07-24T13:18:39.784Z,29.80
2018-07-24T13:21:08.149Z,29.80
2018-07-24T13:23:36.510Z,29.90
2018-07-24T13:26:05.038Z,30.00
2018-07-24T13:28:33.424Z,29.90
2018-07-24T13:31:01.892Z,30.00
2018-07-24T13:33:30.320Z,30.00
2018-07-24T13:35:58.711Z,30.00
2018-07-24T13:38:27.060Z,30.00
2018-07-24T13:40:55.419Z,30.00
2018-07-24T13:43:23.845Z,30.00
2018-07-24T13:45:52.268Z,30.10
2018-07-24T13:48:20.621Z,30.00
2018-07-24T13:50:48.981Z,30.10
2018-07-24T13:53:18.294Z,30.10
2018-07-24T13:55:46.634Z,30.20
2018-07-24T13:58:16.012Z,30.20
2018-07-24T14:00:44.509Z,30.20
2018-07-24T14:03:12.895Z,30.10
2018-07-24T14:05:41.410Z,30.20
2018-07-24T14:13:06.387Z,30.20
2018-07-24T14:16:22.982Z,30.20
2018-07-24T14:18:51.368Z,30.30
2018-07-24T14:21:19.866Z,30.30
2018-07-24T14:23:48.533Z,30.40
2018-07-24T14:26:16.926Z,30.40
2018-07-24T14:28:45.283Z,30.40
2018-07-24T14:31:13.718Z,30.40
2018-07-24T14:33:42.064Z,30.40
2018-07-24T14:36:10.471Z,30.40
2018-07-24T14:38:38.883Z,30.40
2018-07-24T14:41:07.201Z,30.50
2018-07-24T14:43:35.588Z,30.50
2018-07-24T14:48:32.513Z,30.50
2018-07-24T14:51:00.857Z,30.60
2018-07-24T14:53:29.195Z,30.60
2018-07-24T14:55:57.589Z,30.60
2018-07-24T14:58:26.007Z,30.60
2018-07-24T15:00:54.317Z,30.70
2018-07-24T15:03:22.702Z,30.60
2018-07-24T15:05:51.040Z,30.60
2018-07-24T15:08:19.722Z,30.60
2018-07-24T15:10:48.168Z,30.50
2018-07-24T15:13:17.782Z,30.50
2018-07-24T15:16:32.575Z,30.50
2018-07-24T15:19:00.897Z,30.50
2018-07-24T15:21:29.175Z,30.50
2018-07-24T15:23:57.516Z,30.60
2018-07-24T15:26:25.848Z,30.70
2018-07-24T15:29:00.607Z,30.60
2018-07-24T15:31:28.944Z,30.60
2018-07-24T15:33:57.301Z,30.70
2018-07-24T15:36:25.722Z,30.60
2018-07-24T15:38:54.175Z,30.60
2018-07-24T15:41:22.450Z,30.60
2018-07-24T15:43:50.798Z,30.50
2018-07-24T15:46:19.155Z,30.50
2018-07-24T15:48:47.522Z,30.40
2018-07-24T15:51:15.928Z,30.40
2018-07-24T15:53:44.294Z,30.40
2018-07-24T15:56:12.650Z,30.40
2018-07-24T15:58:41.042Z,30.40
2018-07-24T16:01:09.400Z,30.40
2018-07-24T16:03:37.821Z,30.40
2018-07-24T16:06:06.256Z,30.40
2018-07-24T16:08:34.715Z,30.40
2018-07-24T16:11:10.425Z,30.40
2018-07-24T16:13:38.873Z,30.40
2018-07-24T16:16:47.665Z,30.40
2018-07-24T16:19:16.119Z,30.30
2018-07-24T16:21:44.606Z,30.30
2018-07-24T16:24:13.213Z,30.20
2018-07-24T16:26:41.866Z,30.20
2018-07-24T16:29:10.217Z,30.20
2018-07-24T16:31:38.937Z,30.20
2018-07-24T16:34:07.624Z,30.20
2018-07-24T16:36:36.271Z,30.20
2018-07-24T16:39:08.403Z,30.20
2018-07-24T16:41:37.039Z,30.20
2018-07-24T16:44:05.953Z,30.20
2018-07-24T16:46:34.989Z,30.10
2018-07-24T16:49:04.090Z,30.10
2018-07-24T16:51:33.182Z,30.10
2018-07-24T16:54:02.251Z,30.10
2018-07-24T16:56:31.452Z,30.10
2018-07-24T16:59:00.568Z,30.10
2018-07-24T17:01:29.643Z,30.00
2018-07-24T17:03:58.759Z,30.00
2018-07-24T17:06:27.843Z,30.00
2018-07-24T17:08:56.940Z,29.90
2018-07-24T17:11:26.126Z,29.90
2018-07-24T17:13:55.222Z,29.90
2018-07-24T17:16:59.047Z,29.90
2018-07-24T17:19:28.048Z,29.90
2018-07-24T17:21:57.058Z,29.80
2018-07-24T17:24:26.069Z,29.80
2018-07-24T17:26:55.122Z,29.80
2018-07-24T17:29:24.286Z,29.70
2018-07-24T17:31:53.036Z,29.70
2018-07-24T17:34:21.720Z,29.60
2018-07-24T17:36:50.389Z,29.60
2018-07-24T17:39:19.098Z,29.60
2018-07-24T17:41:47.693Z,29.50
2018-07-24T17:44:16.343Z,29.60
2018-07-24T17:46:44.949Z,29.50
2018-07-24T17:49:13.435Z,29.50
2018-07-24T17:51:41.876Z,29.50
2018-07-24T17:54:10.311Z,29.50
2018-07-24T17:56:39.025Z,29.50
2018-07-24T17:59:07.393Z,29.50
2018-07-24T18:01:42.510Z,29.40
2018-07-24T18:04:11.107Z,29.40
2018-07-24T18:06:39.810Z,29.40
2018-07-24T18:09:11.236Z,29.40
2018-07-24T18:11:40.416Z,29.30
2018-07-24T18:14:35.208Z,29.30
2018-07-24T18:17:11.120Z,29.30
2018-07-24T18:19:40.177Z,29.20
2018-07-24T18:22:09.069Z,29.20
2018-07-24T18:24:37.951Z,29.10
2018-07-24T18:27:06.621Z,29.10
2018-07-24T18:29:39.844Z,29.00
2018-07-24T18:32:12.970Z,29.00
2018-07-24T18:34:46.208Z,28.90
2018-07-24T18:37:21.053Z,28.90
2018-07-24T18:39:54.446Z,28.90
2018-07-24T18:42:27.908Z,28.80
2018-07-24T18:45:01.995Z,28.80
2018-07-24T18:47:35.463Z,28.80
2018-07-24T18:50:09.131Z,28.70
2018-07-24T18:52:41.981Z,28.70
2018-07-24T18:55:15.459Z,28.70
2018-07-24T18:57:49.427Z,28.60
2018-07-24T19:00:18.289Z,28.60
2018-07-24T19:02:47.024Z,28.60
2018-07-24T19:05:15.632Z,28.50
2018-07-24T19:07:44.367Z,28.50
2018-07-24T19:10:13.206Z,28.40
2018-07-24T19:12:42.051Z,28.40
2018-07-24T19:18:29.789Z,28.30
2018-07-24T19:20:59.132Z,28.30
2018-07-24T19:23:28.060Z,28.20
2018-07-24T19:25:59.549Z,28.20
2018-07-24T19:28:33.560Z,28.20
2018-07-24T19:31:08.054Z,28.20
2018-07-24T19:33:41.953Z,28.10
2018-07-24T19:36:15.951Z,28.10
2018-07-24T19:38:49.832Z,28.00
2018-07-24T19:41:23.599Z,28.00
2018-07-24T19:43:52.728Z,28.00
2018-07-24T19:46:21.845Z,28.00
2018-07-24T19:48:50.827Z,27.90
2018-07-24T19:51:19.902Z,27.90
2018-07-24T19:53:49.031Z,27.90
2018-07-24T19:56:18.112Z,27.90
2018-07-24T19:58:47.271Z,27.80
2018-07-24T20:01:16.469Z,27.80
2018-07-24T20:03:45.567Z,27.80
2018-07-24T20:06:14.668Z,27.80
2018-07-24T20:08:43.819Z,27.70
2018-07-24T20:11:12.946Z,27.70
2018-07-24T20:13:42.101Z,27.70
2018-07-24T20:19:51.797Z,27.60
2018-07-24T20:22:20.923Z,27.50
2018-07-24T20:24:56.032Z,27.50
2018-07-24T20:30:50.332Z,27.50
2018-07-24T20:33:26.555Z,27.40
2018-07-24T20:36:00.403Z,27.40
2018-07-24T20:38:34.226Z,27.40
2018-07-24T20:41:08.188Z,27.30
2018-07-24T20:43:37.440Z,27.30
2018-07-24T20:46:06.556Z,27.30
2018-07-24T20:48:35.646Z,27.30
2018-07-24T20:51:04.629Z,27.20
2018-07-24T20:53:33.583Z,27.20
2018-07-24T20:56:02.669Z,27.10
2018-07-24T20:58:31.539Z,27.20
2018-07-24T21:01:00.305Z,27.10
2018-07-24T21:03:29.253Z,27.10
2018-07-24T21:05:57.640Z,27.10
2018-07-24T21:08:26.115Z,27.10
2018-07-24T21:10:54.620Z,27.00
2018-07-24T21:13:22.960Z,27.00
2018-07-24T21:19:12.767Z,27.00
2018-07-24T21:21:41.156Z,26.90
2018-07-24T21:26:37.612Z,26.90
2018-07-24T21:29:06.015Z,26.80
2018-07-24T21:31:34.332Z,26.80
2018-07-24T21:34:02.663Z,26.80
2018-07-24T21:36:30.972Z,26.70
2018-07-24T21:38:59.312Z,26.70
2018-07-24T21:41:27.598Z,26.70
2018-07-24T21:43:55.919Z,26.70
2018-07-24T21:46:24.256Z,26.70
2018-07-24T21:48:52.554Z,26.70
2018-07-24T21:51:21.021Z,26.70
2018-07-24T21:53:49.357Z,26.70
2018-07-24T21:56:17.653Z,26.60
2018-07-24T21:58:46.025Z,26.60
2018-07-24T22:01:14.665Z,26.60
2018-07-24T22:03:43.202Z,26.60
2018-07-24T22:06:11.604Z,26.50
2018-07-24T22:08:40.073Z,26.50
2018-07-24T22:11:09.575Z,26.50
2018-07-24T22:13:37.941Z,26.40
2018-07-24T22:16:06.324Z,26.40
2018-07-24T22:18:34.671Z,26.40
2018-07-24T22:21:03.074Z,26.40
2018-07-24T22:23:31.428Z,26.30
2018-07-24T22:25:59.775Z,26.30
2018-07-24T22:28:28.119Z,26.30
2018-07-24T22:30:56.449Z,26.30
2018-07-24T22:33:24.765Z,26.30
2018-07-24T22:35:53.064Z,26.30
2018-07-24T22:38:21.404Z,26.20
2018-07-24T22:40:49.760Z,26.20
2018-07-24T22:43:19.603Z,26.20
2018-07-24T22:45:47.966Z,26.20
2018-07-24T22:50:44.417Z,26.10
2018-07-24T22:53:12.797Z,26.10
2018-07-24T22:55:41.138Z,26.10
2018-07-24T22:58:09.420Z,26.10
2018-07-24T23:00:37.797Z,26.00
2018-07-24T23:03:06.444Z,26.00
2018-07-24T23:05:34.893Z,26.00
2018-07-24T23:08:03.411Z,26.00
2018-07-24T23:10:32.307Z,25.90
2018-07-24T23:13:02.124Z,25.90
2018-07-24T23:15:30.514Z,25.90
2018-07-24T23:17:58.861Z,25.90
2018-07-24T23:20:27.989Z,25.80
2018-07-24T23:22:56.354Z,25.80
2018-07-24T23:25:24.954Z,25.80
2018-07-24T23:27:53.663Z,25.80
2018-07-24T23:30:21.995Z,25.80
2018-07-24T23:32:50.298Z,25.80
2018-07-24T23:35:18.626Z,25.70
2018-07-24T23:37:46.982Z,25.70
2018-07-24T23:40:15.292Z,25.70
2018-07-24T23:42:43.649Z,25.70
2018-07-24T23:45:12.023Z,25.70
2018-07-24T23:47:40.366Z,25.60
2018-07-24T23:50:08.925Z,25.60
2018-07-24T23:52:37.249Z,25.60
2018-07-24T23:55:05.754Z,25.60
2018-07-24T23:57:34.085Z,25.60
